Česky Dansk Deutsch English Español Suomi Français Magyar Italiano Nederlands norsk Polski Português svenska Türkçe

 

Het Weer

Omsk (Rusland)

05:00, 29 juli 2016 (GMT)

NWNNE
WE
SWSSE
Home            
Omsk Astana Karaganda Novosibirsk Kostanay Barnaul Nizhnevartovsk Surgut Hanty-Mansijsk Chelyabinsk-Balandino Kemerovo Ekaterinburg Novokuznetsk Perm'/Bolshoe Savino Ufa Abakan Aktjubinsk Enisejsk Aralskoe More Orenburg / Tsentralny Kzyl-Orda Almaty Bishkek/Manas Airport

Om een weerknop op uw website of weblog te plaatsen, copieer onderstaande code en plak die in uw pagina. In het eerste vakje staat HTML-code, in het tweede vakje UBB-code.


Add to Google

Details

Wind speed:2 bf, 5.8 kn, 3 m/s, 6.7 miles/h, 10.8 km/h
Wind direction:N, 010°
Visibility: 8000 m, 8.0 km, 26247 ft, 5.0 miles
Clouds:Aufgelockert bewölkt at 3300 ft, 1006 m
Temperature:21°C, 70°F
Dew-point:13°C, 55°F
Atmospheric pressure:1006 hPa, 754.6 mmHg, 29.71 inHg, 0.993 atm
Relative humidity:60.2 %
METAR:UNOO 290500Z 01003MPS 8000 SCT033CB 21/13 Q1006 R07/CLRD60 NOSIG RMK QFE746

Snelkoppelingen

Actuele weersinformatie van de hele wereld. Voeg locaties toe met het plus (+) symbool. Deze snelkoppelingen kunnen worden toegevoegd aan Google.

Lid van de Technetium groep

website free tracking
StatCounter NetStat W3C Validator

18-08-2019 05:07:03
astro.technetium.be money.technetium.be phote.technetium.be tafeltennistafel.technetium.be www.ligfiets.net